sensor_id;sensor_type;location;lat;lon;timestamp;P1;durP1;ratioP1;P2;durP2;ratioP2
55172;SDS011;41061;52.822;6.860;2023-03-23T00:01:14;10.23;;;5.70;;
55172;SDS011;41061;52.822;6.860;2023-03-23T00:03:51;10.07;;;5.78;;
55172;SDS011;41061;52.822;6.860;2023-03-23T00:06:19;11.00;;;5.32;;
55172;SDS011;41061;52.822;6.860;2023-03-23T00:08:49;9.38;;;5.85;;
55172;SDS011;41061;52.822;6.860;2023-03-23T00:11:22;8.65;;;5.78;;
55172;SDS011;41061;52.822;6.860;2023-03-23T00:13:52;12.00;;;6.13;;
55172;SDS011;41061;52.822;6.860;2023-03-23T00:16:22;14.52;;;6.25;;
55172;SDS011;41061;52.822;6.860;2023-03-23T00:21:20;9.57;;;5.35;;
55172;SDS011;41061;52.822;6.860;2023-03-23T00:23:57;6.50;;;5.13;;
55172;SDS011;41061;52.822;6.860;2023-03-23T00:26:47;9.02;;;5.38;;
55172;SDS011;41061;52.822;6.860;2023-03-23T00:29:21;14.13;;;5.68;;
55172;SDS011;41061;52.822;6.860;2023-03-23T00:31:48;10.40;;;5.30;;
55172;SDS011;41061;52.822;6.860;2023-03-23T00:34:15;11.02;;;5.68;;
55172;SDS011;41061;52.822;6.860;2023-03-23T00:36:44;9.77;;;5.32;;
55172;SDS011;41061;52.822;6.860;2023-03-23T00:39:11;10.15;;;5.35;;
55172;SDS011;41061;52.822;6.860;2023-03-23T00:41:36;8.32;;;5.18;;
55172;SDS011;41061;52.822;6.860;2023-03-23T00:44:03;11.02;;;5.07;;
55172;SDS011;41061;52.822;6.860;2023-03-23T00:46:29;9.55;;;5.35;;
55172;SDS011;41061;52.822;6.860;2023-03-23T00:48:55;16.13;;;5.50;;
55172;SDS011;41061;52.822;6.860;2023-03-23T00:51:22;10.15;;;5.25;;
55172;SDS011;41061;52.822;6.860;2023-03-23T00:53:48;7.35;;;5.07;;
55172;SDS011;41061;52.822;6.860;2023-03-23T00:56:14;9.13;;;4.75;;
55172;SDS011;41061;52.822;6.860;2023-03-23T00:58:40;8.10;;;4.88;;
55172;SDS011;41061;52.822;6.860;2023-03-23T01:01:06;7.45;;;4.30;;
55172;SDS011;41061;52.822;6.860;2023-03-23T01:03:33;7.63;;;3.70;;
55172;SDS011;41061;52.822;6.860;2023-03-23T01:06:09;9.57;;;4.28;;
55172;SDS011;41061;52.822;6.860;2023-03-23T01:08:38;6.82;;;3.97;;
55172;SDS011;41061;52.822;6.860;2023-03-23T01:11:10;6.90;;;3.22;;
55172;SDS011;41061;52.822;6.860;2023-03-23T01:13:43;4.85;;;3.13;;
55172;SDS011;41061;52.822;6.860;2023-03-23T01:16:09;5.85;;;3.05;;
55172;SDS011;41061;52.822;6.860;2023-03-23T01:18:36;8.10;;;2.90;;
55172;SDS011;41061;52.822;6.860;2023-03-23T01:21:06;4.35;;;2.85;;
55172;SDS011;41061;52.822;6.860;2023-03-23T01:23:34;9.07;;;3.47;;
55172;SDS011;41061;52.822;6.860;2023-03-23T01:26:06;9.65;;;3.30;;
55172;SDS011;41061;52.822;6.860;2023-03-23T01:28:44;11.15;;;3.28;;
55172;SDS011;41061;52.822;6.860;2023-03-23T01:31:11;7.93;;;3.00;;
55172;SDS011;41061;52.822;6.860;2023-03-23T01:33:40;8.77;;;3.53;;
55172;SDS011;41061;52.822;6.860;2023-03-23T01:36:09;7.07;;;3.22;;
55172;SDS011;41061;52.822;6.860;2023-03-23T01:38:37;6.95;;;3.53;;
55172;SDS011;41061;52.822;6.860;2023-03-23T01:41:03;8.32;;;4.00;;
55172;SDS011;41061;52.822;6.860;2023-03-23T01:43:29;5.90;;;3.63;;
55172;SDS011;41061;52.822;6.860;2023-03-23T01:45:55;8.10;;;3.42;;
55172;SDS011;41061;52.822;6.860;2023-03-23T01:48:34;6.28;;;3.78;;
55172;SDS011;41061;52.822;6.860;2023-03-23T01:51:08;6.78;;;3.95;;
55172;SDS011;41061;52.822;6.860;2023-03-23T01:53:38;5.47;;;3.55;;
55172;SDS011;41061;52.822;6.860;2023-03-23T01:56:07;8.73;;;3.78;;
55172;SDS011;41061;52.822;6.860;2023-03-23T01:58:37;10.50;;;3.80;;
55172;SDS011;41061;52.822;6.860;2023-03-23T02:01:05;7.60;;;3.72;;
55172;SDS011;41061;52.822;6.860;2023-03-23T02:03:36;5.75;;;3.45;;
55172;SDS011;41061;52.822;6.860;2023-03-23T02:06:04;8.48;;;3.20;;
55172;SDS011;41061;52.822;6.860;2023-03-23T02:08:30;6.95;;;3.80;;
55172;SDS011;41061;52.822;6.860;2023-03-23T02:10:58;6.82;;;3.65;;
55172;SDS011;41061;52.822;6.860;2023-03-23T02:13:24;8.43;;;3.97;;
55172;SDS011;41061;52.822;6.860;2023-03-23T02:21:41;5.60;;;3.33;;
55172;SDS011;41061;52.822;6.860;2023-03-23T02:27:08;5.20;;;2.90;;
55172;SDS011;41061;52.822;6.860;2023-03-23T02:32:31;5.43;;;3.42;;
55172;SDS011;41061;52.822;6.860;2023-03-23T02:35:20;6.47;;;3.17;;
55172;SDS011;41061;52.822;6.860;2023-03-23T02:38:06;6.93;;;3.63;;
55172;SDS011;41061;52.822;6.860;2023-03-23T02:40:46;7.47;;;3.30;;
55172;SDS011;41061;52.822;6.860;2023-03-23T02:43:15;6.07;;;3.33;;
55172;SDS011;41061;52.822;6.860;2023-03-23T02:45:44;8.48;;;3.53;;
55172;SDS011;41061;52.822;6.860;2023-03-23T02:48:11;8.38;;;3.58;;
55172;SDS011;41061;52.822;6.860;2023-03-23T02:50:40;7.50;;;3.20;;
55172;SDS011;41061;52.822;6.860;2023-03-23T02:53:09;7.25;;;3.60;;
55172;SDS011;41061;52.822;6.860;2023-03-23T02:55:38;6.25;;;3.55;;
55172;SDS011;41061;52.822;6.860;2023-03-23T02:58:10;7.00;;;3.20;;
55172;SDS011;41061;52.822;6.860;2023-03-23T03:00:36;6.88;;;3.15;;
55172;SDS011;41061;52.822;6.860;2023-03-23T03:03:03;7.93;;;3.45;;
55172;SDS011;41061;52.822;6.860;2023-03-23T03:05:37;7.88;;;3.55;;
55172;SDS011;41061;52.822;6.860;2023-03-23T03:11:13;7.05;;;3.30;;
55172;SDS011;41061;52.822;6.860;2023-03-23T03:14:24;6.97;;;3.20;;
55172;SDS011;41061;52.822;6.860;2023-03-23T03:21:45;8.25;;;3.28;;
55172;SDS011;41061;52.822;6.860;2023-03-23T03:24:15;7.72;;;3.22;;
55172;SDS011;41061;52.822;6.860;2023-03-23T03:26:46;5.13;;;3.33;;
55172;SDS011;41061;52.822;6.860;2023-03-23T03:29:19;5.28;;;3.05;;
55172;SDS011;41061;52.822;6.860;2023-03-23T03:31:48;4.85;;;3.35;;
55172;SDS011;41061;52.822;6.860;2023-03-23T03:34:16;7.68;;;3.20;;
55172;SDS011;41061;52.822;6.860;2023-03-23T03:36:43;5.07;;;3.03;;
55172;SDS011;41061;52.822;6.860;2023-03-23T03:39:11;5.35;;;3.20;;
55172;SDS011;41061;52.822;6.860;2023-03-23T03:41:40;7.85;;;3.08;;
55172;SDS011;41061;52.822;6.860;2023-03-23T03:44:06;4.78;;;3.20;;
55172;SDS011;41061;52.822;6.860;2023-03-23T03:46:33;7.15;;;3.20;;
55172;SDS011;41061;52.822;6.860;2023-03-23T03:49:00;7.70;;;3.67;;
55172;SDS011;41061;52.822;6.860;2023-03-23T03:51:28;8.10;;;3.33;;
55172;SDS011;41061;52.822;6.860;2023-03-23T03:53:55;5.22;;;3.20;;
55172;SDS011;41061;52.822;6.860;2023-03-23T03:56:22;7.10;;;3.40;;
55172;SDS011;41061;52.822;6.860;2023-03-23T03:58:48;7.82;;;3.25;;
55172;SDS011;41061;52.822;6.860;2023-03-23T04:01:16;4.32;;;2.97;;
55172;SDS011;41061;52.822;6.860;2023-03-23T04:03:43;7.45;;;3.40;;
55172;SDS011;41061;52.822;6.860;2023-03-23T04:06:10;5.00;;;2.88;;
55172;SDS011;41061;52.822;6.860;2023-03-23T04:08:39;5.20;;;3.38;;
55172;SDS011;41061;52.822;6.860;2023-03-23T04:11:09;5.80;;;3.20;;
55172;SDS011;41061;52.822;6.860;2023-03-23T04:13:39;6.75;;;3.28;;
55172;SDS011;41061;52.822;6.860;2023-03-23T04:16:05;5.22;;;3.47;;
55172;SDS011;41061;52.822;6.860;2023-03-23T04:18:32;6.38;;;3.22;;
55172;SDS011;41061;52.822;6.860;2023-03-23T04:20:59;5.05;;;3.65;;
55172;SDS011;41061;52.822;6.860;2023-03-23T04:23:26;5.45;;;3.55;;
55172;SDS011;41061;52.822;6.860;2023-03-23T04:25:55;7.10;;;3.75;;
55172;SDS011;41061;52.822;6.860;2023-03-23T04:28:23;5.63;;;3.72;;
55172;SDS011;41061;52.822;6.860;2023-03-23T04:30:50;6.88;;;3.50;;
55172;SDS011;41061;52.822;6.860;2023-03-23T04:33:20;7.55;;;3.83;;
55172;SDS011;41061;52.822;6.860;2023-03-23T04:35:50;6.47;;;3.72;;
55172;SDS011;41061;52.822;6.860;2023-03-23T04:38:18;4.70;;;3.15;;
55172;SDS011;41061;52.822;6.860;2023-03-23T04:40:45;6.75;;;3.55;;
55172;SDS011;41061;52.822;6.860;2023-03-23T04:43:12;8.35;;;3.83;;
55172;SDS011;41061;52.822;6.860;2023-03-23T04:45:39;6.15;;;3.25;;
55172;SDS011;41061;52.822;6.860;2023-03-23T04:48:10;6.43;;;3.42;;
55172;SDS011;41061;52.822;6.860;2023-03-23T04:50:36;6.95;;;3.33;;
55172;SDS011;41061;52.822;6.860;2023-03-23T04:53:02;9.45;;;3.40;;
55172;SDS011;41061;52.822;6.860;2023-03-23T04:55:33;8.43;;;3.67;;
55172;SDS011;41061;52.822;6.860;2023-03-23T04:58:03;8.60;;;3.33;;
55172;SDS011;41061;52.822;6.860;2023-03-23T05:00:30;9.02;;;3.50;;
55172;SDS011;41061;52.822;6.860;2023-03-23T05:03:00;6.68;;;3.63;;
55172;SDS011;41061;52.822;6.860;2023-03-23T05:05:26;7.03;;;3.33;;
55172;SDS011;41061;52.822;6.860;2023-03-23T05:07:54;6.97;;;3.70;;
55172;SDS011;41061;52.822;6.860;2023-03-23T05:10:20;8.25;;;3.45;;
55172;SDS011;41061;52.822;6.860;2023-03-23T05:12:46;5.97;;;3.30;;
55172;SDS011;41061;52.822;6.860;2023-03-23T05:15:13;10.45;;;3.85;;
55172;SDS011;41061;52.822;6.860;2023-03-23T05:17:40;12.02;;;4.05;;
55172;SDS011;41061;52.822;6.860;2023-03-23T05:20:09;9.10;;;3.60;;
55172;SDS011;41061;52.822;6.860;2023-03-23T05:22:37;6.25;;;3.95;;
55172;SDS011;41061;52.822;6.860;2023-03-23T05:25:03;7.53;;;1.83;;
55172;SDS011;41061;52.822;6.860;2023-03-23T05:27:39;3.25;;;1.35;;
55172;SDS011;41061;52.822;6.860;2023-03-23T05:30:08;7.07;;;1.45;;
55172;SDS011;41061;52.822;6.860;2023-03-23T05:32:34;16.80;;;2.00;;
55172;SDS011;41061;52.822;6.860;2023-03-23T05:35:02;6.00;;;2.38;;
55172;SDS011;41061;52.822;6.860;2023-03-23T05:37:28;7.20;;;1.50;;
55172;SDS011;41061;52.822;6.860;2023-03-23T05:39:57;6.80;;;1.50;;
55172;SDS011;41061;52.822;6.860;2023-03-23T05:42:26;5.38;;;1.65;;
55172;SDS011;41061;52.822;6.860;2023-03-23T05:44:52;7.15;;;2.08;;
55172;SDS011;41061;52.822;6.860;2023-03-23T05:47:18;6.05;;;1.80;;
55172;SDS011;41061;52.822;6.860;2023-03-23T05:49:44;8.70;;;2.25;;
55172;SDS011;41061;52.822;6.860;2023-03-23T05:52:09;7.28;;;2.00;;
55172;SDS011;41061;52.822;6.860;2023-03-23T05:54:35;8.25;;;2.38;;
55172;SDS011;41061;52.822;6.860;2023-03-23T05:57:02;9.63;;;2.33;;
55172;SDS011;41061;52.822;6.860;2023-03-23T05:59:28;9.18;;;2.88;;
55172;SDS011;41061;52.822;6.860;2023-03-23T06:01:54;8.98;;;3.35;;
55172;SDS011;41061;52.822;6.860;2023-03-23T06:04:20;8.18;;;2.92;;
55172;SDS011;41061;52.822;6.860;2023-03-23T06:06:50;6.78;;;2.60;;
55172;SDS011;41061;52.822;6.860;2023-03-23T06:09:19;5.47;;;2.08;;
55172;SDS011;41061;52.822;6.860;2023-03-23T06:11:46;5.60;;;1.88;;
55172;SDS011;41061;52.822;6.860;2023-03-23T06:14:12;6.53;;;2.00;;
55172;SDS011;41061;52.822;6.860;2023-03-23T06:16:38;5.43;;;1.65;;
55172;SDS011;41061;52.822;6.860;2023-03-23T06:19:04;6.07;;;1.50;;
55172;SDS011;41061;52.822;6.860;2023-03-23T06:21:32;4.35;;;1.98;;
55172;SDS011;41061;52.822;6.860;2023-03-23T06:23:59;6.15;;;1.63;;
55172;SDS011;41061;52.822;6.860;2023-03-23T06:26:29;4.32;;;1.40;;
55172;SDS011;41061;52.822;6.860;2023-03-23T06:28:57;7.05;;;1.40;;
55172;SDS011;41061;52.822;6.860;2023-03-23T06:31:23;9.43;;;1.70;;
55172;SDS011;41061;52.822;6.860;2023-03-23T06:33:50;8.32;;;1.98;;
55172;SDS011;41061;52.822;6.860;2023-03-23T06:36:16;5.15;;;1.60;;
55172;SDS011;41061;52.822;6.860;2023-03-23T06:38:42;6.35;;;1.70;;
55172;SDS011;41061;52.822;6.860;2023-03-23T06:41:08;9.55;;;1.90;;
55172;SDS011;41061;52.822;6.860;2023-03-23T06:43:34;7.25;;;1.95;;
55172;SDS011;41061;52.822;6.860;2023-03-23T06:46:03;9.05;;;2.10;;
55172;SDS011;41061;52.822;6.860;2023-03-23T06:48:28;16.30;;;2.45;;
55172;SDS011;41061;52.822;6.860;2023-03-23T06:50:54;9.48;;;1.80;;
55172;SDS011;41061;52.822;6.860;2023-03-23T06:53:20;11.98;;;2.00;;
55172;SDS011;41061;52.822;6.860;2023-03-23T06:55:46;8.05;;;1.90;;
55172;SDS011;41061;52.822;6.860;2023-03-23T06:58:12;10.20;;;2.00;;
55172;SDS011;41061;52.822;6.860;2023-03-23T07:00:38;9.40;;;1.65;;
55172;SDS011;41061;52.822;6.860;2023-03-23T07:03:05;11.02;;;2.42;;
55172;SDS011;41061;52.822;6.860;2023-03-23T07:05:32;10.45;;;1.98;;
55172;SDS011;41061;52.822;6.860;2023-03-23T07:07:59;12.35;;;2.75;;
55172;SDS011;41061;52.822;6.860;2023-03-23T07:10:24;11.10;;;2.60;;
55172;SDS011;41061;52.822;6.860;2023-03-23T07:12:50;17.67;;;2.70;;
55172;SDS011;41061;52.822;6.860;2023-03-23T07:15:16;14.07;;;2.80;;
55172;SDS011;41061;52.822;6.860;2023-03-23T07:17:42;13.88;;;2.60;;
55172;SDS011;41061;52.822;6.860;2023-03-23T07:20:07;12.20;;;2.90;;
55172;SDS011;41061;52.822;6.860;2023-03-23T07:22:33;8.77;;;2.00;;
55172;SDS011;41061;52.822;6.860;2023-03-23T07:25:00;13.18;;;2.50;;
55172;SDS011;41061;52.822;6.860;2023-03-23T07:27:26;8.60;;;2.10;;
55172;SDS011;41061;52.822;6.860;2023-03-23T07:29:52;10.68;;;2.50;;
55172;SDS011;41061;52.822;6.860;2023-03-23T07:32:18;11.60;;;2.80;;
55172;SDS011;41061;52.822;6.860;2023-03-23T07:34:44;24.70;;;3.60;;
55172;SDS011;41061;52.822;6.860;2023-03-23T07:37:09;10.07;;;2.70;;
55172;SDS011;41061;52.822;6.860;2023-03-23T07:39:35;15.13;;;3.88;;
55172;SDS011;41061;52.822;6.860;2023-03-23T07:42:01;10.38;;;2.88;;
55172;SDS011;41061;52.822;6.860;2023-03-23T07:44:27;13.90;;;3.05;;
55172;SDS011;41061;52.822;6.860;2023-03-23T07:46:53;10.95;;;2.30;;
55172;SDS011;41061;52.822;6.860;2023-03-23T07:49:19;9.13;;;2.30;;
55172;SDS011;41061;52.822;6.860;2023-03-23T07:51:46;11.90;;;2.63;;
55172;SDS011;41061;52.822;6.860;2023-03-23T07:54:12;11.05;;;2.28;;
55172;SDS011;41061;52.822;6.860;2023-03-23T07:56:39;9.50;;;2.28;;
55172;SDS011;41061;52.822;6.860;2023-03-23T07:59:05;11.40;;;2.50;;
55172;SDS011;41061;52.822;6.860;2023-03-23T08:01:31;12.57;;;2.97;;
55172;SDS011;41061;52.822;6.860;2023-03-23T08:03:57;13.38;;;2.75;;
55172;SDS011;41061;52.822;6.860;2023-03-23T08:06:24;14.95;;;2.70;;
55172;SDS011;41061;52.822;6.860;2023-03-23T08:08:50;11.70;;;2.80;;
55172;SDS011;41061;52.822;6.860;2023-03-23T08:11:17;11.18;;;2.80;;
55172;SDS011;41061;52.822;6.860;2023-03-23T08:13:44;11.20;;;2.20;;
55172;SDS011;41061;52.822;6.860;2023-03-23T08:16:10;9.45;;;2.30;;
55172;SDS011;41061;52.822;6.860;2023-03-23T08:18:36;11.48;;;2.72;;
55172;SDS011;41061;52.822;6.860;2023-03-23T08:21:04;17.10;;;3.13;;
55172;SDS011;41061;52.822;6.860;2023-03-23T08:23:33;12.82;;;3.05;;
55172;SDS011;41061;52.822;6.860;2023-03-23T08:26:04;17.40;;;4.40;;
55172;SDS011;41061;52.822;6.860;2023-03-23T08:28:32;15.90;;;2.83;;
55172;SDS011;41061;52.822;6.860;2023-03-23T08:30:58;14.73;;;3.13;;
55172;SDS011;41061;52.822;6.860;2023-03-23T08:33:24;15.00;;;3.45;;
55172;SDS011;41061;52.822;6.860;2023-03-23T08:35:57;17.45;;;3.70;;
55172;SDS011;41061;52.822;6.860;2023-03-23T08:38:24;18.17;;;3.70;;
55172;SDS011;41061;52.822;6.860;2023-03-23T08:40:50;16.77;;;3.55;;
55172;SDS011;41061;52.822;6.860;2023-03-23T08:43:17;14.63;;;3.13;;
55172;SDS011;41061;52.822;6.860;2023-03-23T08:45:43;18.63;;;3.50;;
55172;SDS011;41061;52.822;6.860;2023-03-23T08:48:09;16.58;;;3.63;;
55172;SDS011;41061;52.822;6.860;2023-03-23T08:50:35;17.42;;;3.22;;
55172;SDS011;41061;52.822;6.860;2023-03-23T08:53:02;15.60;;;3.17;;
55172;SDS011;41061;52.822;6.860;2023-03-23T08:55:28;14.13;;;3.47;;
55172;SDS011;41061;52.822;6.860;2023-03-23T08:57:54;16.63;;;3.70;;
55172;SDS011;41061;52.822;6.860;2023-03-23T09:00:20;16.25;;;3.42;;
55172;SDS011;41061;52.822;6.860;2023-03-23T09:02:49;15.57;;;3.33;;
55172;SDS011;41061;52.822;6.860;2023-03-23T09:05:17;14.10;;;2.88;;
55172;SDS011;41061;52.822;6.860;2023-03-23T09:07:46;17.23;;;3.15;;
55172;SDS011;41061;52.822;6.860;2023-03-23T09:10:13;15.77;;;3.45;;
55172;SDS011;41061;52.822;6.860;2023-03-23T09:12:40;13.63;;;3.25;;
55172;SDS011;41061;52.822;6.860;2023-03-23T09:15:07;15.95;;;3.33;;
55172;SDS011;41061;52.822;6.860;2023-03-23T09:17:36;16.10;;;3.42;;
55172;SDS011;41061;52.822;6.860;2023-03-23T09:20:03;14.45;;;3.63;;
55172;SDS011;41061;52.822;6.860;2023-03-23T09:22:36;19.48;;;3.55;;
55172;SDS011;41061;52.822;6.860;2023-03-23T09:25:04;16.23;;;3.17;;
55172;SDS011;41061;52.822;6.860;2023-03-23T09:27:30;19.15;;;3.58;;
55172;SDS011;41061;52.822;6.860;2023-03-23T09:29:55;16.90;;;3.80;;
55172;SDS011;41061;52.822;6.860;2023-03-23T09:32:21;16.65;;;2.95;;
55172;SDS011;41061;52.822;6.860;2023-03-23T09:34:48;14.23;;;3.40;;
55172;SDS011;41061;52.822;6.860;2023-03-23T09:37:14;22.20;;;4.47;;
55172;SDS011;41061;52.822;6.860;2023-03-23T09:39:40;18.20;;;3.55;;
55172;SDS011;41061;52.822;6.860;2023-03-23T09:42:18;13.52;;;3.13;;
55172;SDS011;41061;52.822;6.860;2023-03-23T09:44:53;13.48;;;3.80;;
55172;SDS011;41061;52.822;6.860;2023-03-23T09:50:30;15.52;;;3.88;;
55172;SDS011;41061;52.822;6.860;2023-03-23T09:52:59;13.07;;;3.30;;
55172;SDS011;41061;52.822;6.860;2023-03-23T09:55:44;10.90;;;3.03;;
55172;SDS011;41061;52.822;6.860;2023-03-23T09:58:22;14.35;;;2.90;;
55172;SDS011;41061;52.822;6.860;2023-03-23T10:03:35;13.63;;;3.45;;
55172;SDS011;41061;52.822;6.860;2023-03-23T10:06:04;14.60;;;2.92;;
55172;SDS011;41061;52.822;6.860;2023-03-23T10:08:32;12.27;;;2.90;;
55172;SDS011;41061;52.822;6.860;2023-03-23T10:16:23;12.93;;;3.13;;
55172;SDS011;41061;52.822;6.860;2023-03-23T10:19:08;13.60;;;3.33;;
55172;SDS011;41061;52.822;6.860;2023-03-23T10:21:40;12.65;;;3.28;;
55172;SDS011;41061;52.822;6.860;2023-03-23T10:24:10;12.25;;;2.67;;
55172;SDS011;41061;52.822;6.860;2023-03-23T10:31:57;12.05;;;3.28;;
55172;SDS011;41061;52.822;6.860;2023-03-23T10:40:12;10.80;;;2.80;;
55172;SDS011;41061;52.822;6.860;2023-03-23T10:44:54;7.60;;;2.72;;
55172;SDS011;41061;52.822;6.860;2023-03-23T10:47:21;10.48;;;2.10;;
55172;SDS011;41061;52.822;6.860;2023-03-23T10:55:11;8.50;;;2.25;;
55172;SDS011;41061;52.822;6.860;2023-03-23T10:58:08;8.75;;;1.77;;
55172;SDS011;41061;52.822;6.860;2023-03-23T11:00:45;9.80;;;1.95;;
55172;SDS011;41061;52.822;6.860;2023-03-23T11:08:13;8.30;;;2.28;;
55172;SDS011;41061;52.822;6.860;2023-03-23T11:10:42;15.73;;;2.35;;
55172;SDS011;41061;52.822;6.860;2023-03-23T11:13:18;10.20;;;2.10;;
55172;SDS011;41061;52.822;6.860;2023-03-23T11:15:46;11.80;;;2.42;;
55172;SDS011;41061;52.822;6.860;2023-03-23T11:18:20;10.00;;;2.20;;
55172;SDS011;41061;52.822;6.860;2023-03-23T11:20:52;10.25;;;1.95;;
55172;SDS011;41061;52.822;6.860;2023-03-23T11:23:27;9.52;;;1.75;;
55172;SDS011;41061;52.822;6.860;2023-03-23T11:28:31;10.33;;;2.33;;
55172;SDS011;41061;52.822;6.860;2023-03-23T11:30:59;9.23;;;2.17;;
55172;SDS011;41061;52.822;6.860;2023-03-23T11:33:30;12.70;;;2.20;;
55172;SDS011;41061;52.822;6.860;2023-03-23T11:36:20;10.00;;;2.10;;
55172;SDS011;41061;52.822;6.860;2023-03-23T11:38:55;11.13;;;2.50;;
55172;SDS011;41061;52.822;6.860;2023-03-23T11:41:22;9.50;;;2.20;;
55172;SDS011;41061;52.822;6.860;2023-03-23T11:43:51;7.90;;;2.30;;
55172;SDS011;41061;52.822;6.860;2023-03-23T11:48:57;11.02;;;3.65;;
55172;SDS011;41061;52.822;6.860;2023-03-23T11:51:39;13.45;;;2.58;;
55172;SDS011;41061;52.822;6.860;2023-03-23T11:54:27;9.35;;;2.15;;
55172;SDS011;41061;52.822;6.860;2023-03-23T11:56:57;10.27;;;1.88;;
55172;SDS011;41061;52.822;6.860;2023-03-23T11:59:28;10.02;;;2.35;;
55172;SDS011;41061;52.822;6.860;2023-03-23T12:02:04;11.00;;;2.33;;
55172;SDS011;41061;52.822;6.860;2023-03-23T12:04:52;10.20;;;2.15;;
55172;SDS011;41061;52.822;6.860;2023-03-23T12:27:01;10.52;;;1.85;;
55172;SDS011;41061;52.822;6.860;2023-03-23T12:48:40;9.88;;;2.40;;
55172;SDS011;41061;52.822;6.860;2023-03-23T12:51:21;10.68;;;2.00;;
55172;SDS011;41061;52.822;6.860;2023-03-23T12:53:56;8.02;;;1.95;;
55172;SDS011;41061;52.822;6.860;2023-03-23T13:02:48;13.32;;;2.30;;
55172;SDS011;41061;52.822;6.860;2023-03-23T13:04:52;9.57;;;1.90;;
55172;SDS011;41061;52.822;6.860;2023-03-23T13:07:46;14.00;;;2.83;;
55172;SDS011;41061;52.822;6.860;2023-03-23T13:10:25;9.38;;;1.58;;
55172;SDS011;41061;52.822;6.860;2023-03-23T13:12:54;12.45;;;2.92;;
55172;SDS011;41061;52.822;6.860;2023-03-23T13:20:54;10.75;;;2.45;;
55172;SDS011;41061;52.822;6.860;2023-03-23T13:26:18;12.05;;;2.00;;
55172;SDS011;41061;52.822;6.860;2023-03-23T13:28:54;8.75;;;1.95;;
55172;SDS011;41061;52.822;6.860;2023-03-23T13:31:33;13.80;;;3.03;;
55172;SDS011;41061;52.822;6.860;2023-03-23T13:39:35;8.68;;;2.10;;
55172;SDS011;41061;52.822;6.860;2023-03-23T13:49:51;9.70;;;2.05;;
55172;SDS011;41061;52.822;6.860;2023-03-23T13:52:23;13.05;;;2.25;;
55172;SDS011;41061;52.822;6.860;2023-03-23T13:57:48;10.20;;;1.80;;
55172;SDS011;41061;52.822;6.860;2023-03-23T14:05:38;10.33;;;2.73;;
55172;SDS011;41061;52.822;6.860;2023-03-23T14:13:25;7.57;;;1.88;;
55172;SDS011;41061;52.822;6.860;2023-03-23T14:18:35;4.88;;;1.50;;
55172;SDS011;41061;52.822;6.860;2023-03-23T14:21:04;11.27;;;1.90;;
55172;SDS011;41061;52.822;6.860;2023-03-23T14:23:31;9.07;;;2.13;;
55172;SDS011;41061;52.822;6.860;2023-03-23T14:25:59;7.38;;;1.85;;
55172;SDS011;41061;52.822;6.860;2023-03-23T14:28:38;8.77;;;2.10;;
55172;SDS011;41061;52.822;6.860;2023-03-23T14:31:05;9.70;;;2.10;;
55172;SDS011;41061;52.822;6.860;2023-03-23T14:33:39;12.63;;;2.75;;
55172;SDS011;41061;52.822;6.860;2023-03-23T14:36:06;10.00;;;1.95;;
55172;SDS011;41061;52.822;6.860;2023-03-23T14:38:32;6.78;;;1.50;;
55172;SDS011;41061;52.822;6.860;2023-03-23T14:41:02;4.93;;;1.42;;
55172;SDS011;41061;52.822;6.860;2023-03-23T14:43:30;7.75;;;1.80;;
55172;SDS011;41061;52.822;6.860;2023-03-23T14:45:59;13.98;;;2.40;;
55172;SDS011;41061;52.822;6.860;2023-03-23T14:48:26;9.10;;;1.77;;
55172;SDS011;41061;52.822;6.860;2023-03-23T14:50:58;9.40;;;1.77;;
55172;SDS011;41061;52.822;6.860;2023-03-23T14:53:37;13.40;;;2.80;;
55172;SDS011;41061;52.822;6.860;2023-03-23T14:56:12;14.02;;;2.70;;
55172;SDS011;41061;52.822;6.860;2023-03-23T14:58:43;11.52;;;2.47;;
55172;SDS011;41061;52.822;6.860;2023-03-23T15:01:15;11.02;;;1.88;;
55172;SDS011;41061;52.822;6.860;2023-03-23T15:06:26;7.40;;;2.00;;
55172;SDS011;41061;52.822;6.860;2023-03-23T15:08:54;9.10;;;2.40;;
55172;SDS011;41061;52.822;6.860;2023-03-23T15:11:26;8.50;;;1.70;;
55172;SDS011;41061;52.822;6.860;2023-03-23T15:14:17;11.57;;;2.25;;
55172;SDS011;41061;52.822;6.860;2023-03-23T15:16:48;13.52;;;2.65;;
55172;SDS011;41061;52.822;6.860;2023-03-23T15:19:21;12.25;;;2.35;;
55172;SDS011;41061;52.822;6.860;2023-03-23T15:22:19;9.98;;;1.90;;
55172;SDS011;41061;52.822;6.860;2023-03-23T15:25:01;10.98;;;2.63;;
55172;SDS011;41061;52.822;6.860;2023-03-23T15:27:32;15.02;;;3.10;;
55172;SDS011;41061;52.822;6.860;2023-03-23T15:30:10;12.57;;;2.78;;
55172;SDS011;41061;52.822;6.860;2023-03-23T15:33:02;9.38;;;2.03;;
55172;SDS011;41061;52.822;6.860;2023-03-23T15:35:36;12.10;;;3.00;;
55172;SDS011;41061;52.822;6.860;2023-03-23T15:38:04;14.82;;;2.60;;
55172;SDS011;41061;52.822;6.860;2023-03-23T15:40:35;8.48;;;2.42;;
55172;SDS011;41061;52.822;6.860;2023-03-23T15:43:16;13.38;;;2.30;;
55172;SDS011;41061;52.822;6.860;2023-03-23T15:45:51;10.52;;;2.30;;
55172;SDS011;41061;52.822;6.860;2023-03-23T15:48:17;11.70;;;2.80;;
55172;SDS011;41061;52.822;6.860;2023-03-23T15:50:43;9.60;;;2.20;;
55172;SDS011;41061;52.822;6.860;2023-03-23T15:55:51;10.02;;;2.40;;
55172;SDS011;41061;52.822;6.860;2023-03-23T15:58:17;9.55;;;2.33;;
55172;SDS011;41061;52.822;6.860;2023-03-23T16:00:42;12.52;;;2.90;;
55172;SDS011;41061;52.822;6.860;2023-03-23T16:03:11;9.95;;;2.33;;
55172;SDS011;41061;52.822;6.860;2023-03-23T16:05:43;9.52;;;2.28;;
55172;SDS011;41061;52.822;6.860;2023-03-23T16:08:10;13.88;;;2.75;;
55172;SDS011;41061;52.822;6.860;2023-03-23T16:10:36;9.15;;;2.30;;
55172;SDS011;41061;52.822;6.860;2023-03-23T16:13:02;8.80;;;2.28;;
55172;SDS011;41061;52.822;6.860;2023-03-23T16:15:29;11.57;;;2.28;;
55172;SDS011;41061;52.822;6.860;2023-03-23T16:17:56;13.73;;;2.47;;
55172;SDS011;41061;52.822;6.860;2023-03-23T16:20:22;15.30;;;5.82;;
55172;SDS011;41061;52.822;6.860;2023-03-23T16:22:49;8.98;;;2.20;;
55172;SDS011;41061;52.822;6.860;2023-03-23T16:25:16;8.95;;;1.90;;
55172;SDS011;41061;52.822;6.860;2023-03-23T16:27:43;8.00;;;1.80;;
55172;SDS011;41061;52.822;6.860;2023-03-23T16:30:19;9.27;;;2.13;;
55172;SDS011;41061;52.822;6.860;2023-03-23T16:32:47;7.85;;;1.60;;
55172;SDS011;41061;52.822;6.860;2023-03-23T16:35:13;7.80;;;2.03;;
55172;SDS011;41061;52.822;6.860;2023-03-23T16:37:43;8.80;;;2.60;;
55172;SDS011;41061;52.822;6.860;2023-03-23T16:40:15;9.10;;;2.22;;
55172;SDS011;41061;52.822;6.860;2023-03-23T16:42:42;8.48;;;2.30;;
55172;SDS011;41061;52.822;6.860;2023-03-23T16:45:08;14.95;;;2.28;;
55172;SDS011;41061;52.822;6.860;2023-03-23T16:47:34;6.00;;;2.55;;
55172;SDS011;41061;52.822;6.860;2023-03-23T16:50:01;5.43;;;1.92;;
55172;SDS011;41061;52.822;6.860;2023-03-23T16:52:27;6.65;;;1.75;;
55172;SDS011;41061;52.822;6.860;2023-03-23T16:54:53;8.13;;;1.90;;
55172;SDS011;41061;52.822;6.860;2023-03-23T16:57:18;6.97;;;2.13;;
55172;SDS011;41061;52.822;6.860;2023-03-23T16:59:44;6.63;;;1.45;;
55172;SDS011;41061;52.822;6.860;2023-03-23T17:02:10;6.80;;;1.38;;
55172;SDS011;41061;52.822;6.860;2023-03-23T17:04:40;9.32;;;2.00;;
55172;SDS011;41061;52.822;6.860;2023-03-23T17:07:08;4.40;;;1.35;;
55172;SDS011;41061;52.822;6.860;2023-03-23T17:09:33;6.10;;;1.67;;
55172;SDS011;41061;52.822;6.860;2023-03-23T17:11:59;7.10;;;1.67;;
55172;SDS011;41061;52.822;6.860;2023-03-23T17:14:25;4.60;;;1.38;;
55172;SDS011;41061;52.822;6.860;2023-03-23T17:16:51;4.95;;;1.35;;
55172;SDS011;41061;52.822;6.860;2023-03-23T17:19:16;6.30;;;1.60;;
55172;SDS011;41061;52.822;6.860;2023-03-23T17:21:42;5.68;;;2.00;;
55172;SDS011;41061;52.822;6.860;2023-03-23T17:24:08;7.50;;;1.95;;
55172;SDS011;41061;52.822;6.860;2023-03-23T17:26:34;5.57;;;1.58;;